createdAt,value
2022-10-15T00:04:31.561Z,4.80
2022-10-15T00:09:35.399Z,5.00
2022-10-15T00:14:39.208Z,5.10
2022-10-15T00:19:44.649Z,5.80
2022-10-15T00:24:48.435Z,4.22
2022-10-15T00:29:52.239Z,5.15
2022-10-15T00:34:57.484Z,5.15
2022-10-15T00:45:13.288Z,5.10
2022-10-15T00:50:20.457Z,4.97
2022-10-15T00:55:28.546Z,5.22
2022-10-15T01:00:32.473Z,4.70
2022-10-15T01:05:38.929Z,4.90
2022-10-15T01:10:52.290Z,5.10
2022-10-15T01:15:58.915Z,5.13
2022-10-15T01:21:10.671Z,4.60
2022-10-15T01:26:47.579Z,4.97
2022-10-15T01:37:10.537Z,6.05
2022-10-15T01:42:17.227Z,6.10
2022-10-15T01:47:26.631Z,6.07
2022-10-15T01:52:33.049Z,5.63
2022-10-15T01:57:38.093Z,5.95
2022-10-15T02:02:43.565Z,6.03
2022-10-15T02:07:53.444Z,5.73
2022-10-15T02:13:05.753Z,5.60
2022-10-15T02:18:17.849Z,4.93
2022-10-15T02:23:23.006Z,5.30
2022-10-15T02:28:27.397Z,5.40
2022-10-15T02:33:33.647Z,5.60
2022-10-15T02:43:41.922Z,5.15
2022-10-15T02:48:49.988Z,4.93
2022-10-15T02:53:55.023Z,5.78
2022-10-15T02:58:58.862Z,5.80
2022-10-15T03:04:04.498Z,4.97
2022-10-15T03:14:13.743Z,5.43
2022-10-15T03:19:19.819Z,5.32
2022-10-15T03:29:29.153Z,5.63
2022-10-15T03:34:40.304Z,6.20
2022-10-15T03:39:46.371Z,6.55
2022-10-15T03:44:51.691Z,5.27
2022-10-15T03:49:58.524Z,7.07
2022-10-15T03:55:02.396Z,6.83
2022-10-15T04:00:09.236Z,6.65
2022-10-15T04:05:19.995Z,6.53
2022-10-15T04:10:30.161Z,6.80
2022-10-15T04:15:34.179Z,6.63
2022-10-15T04:20:44.163Z,7.47
2022-10-15T04:26:00.313Z,7.78
2022-10-15T04:31:04.663Z,8.40
2022-10-15T04:36:14.211Z,8.43
2022-10-15T04:41:47.113Z,8.70
2022-10-15T04:46:54.410Z,9.07
2022-10-15T04:52:31.740Z,6.50
2022-10-15T04:57:42.287Z,8.57
2022-10-15T05:02:46.304Z,9.48
2022-10-15T05:08:15.343Z,8.90
2022-10-15T05:13:41.757Z,9.88
2022-10-15T05:18:47.509Z,10.43
2022-10-15T05:23:53.085Z,9.47
2022-10-15T05:29:15.488Z,10.88
2022-10-15T05:34:19.635Z,13.30
2022-10-15T05:39:31.175Z,11.55
2022-10-15T05:44:36.465Z,10.98
2022-10-15T05:49:40.354Z,10.02
2022-10-15T05:54:53.591Z,8.35
2022-10-15T05:59:57.417Z,8.70
2022-10-15T06:05:01.437Z,7.82
2022-10-15T06:10:07.332Z,7.72
2022-10-15T06:15:11.876Z,7.47
2022-10-15T06:20:15.827Z,7.60
2022-10-15T06:25:22.435Z,6.93
2022-10-15T06:30:26.400Z,6.53
2022-10-15T06:35:30.534Z,7.45
2022-10-15T06:40:35.722Z,7.28
2022-10-15T06:45:42.095Z,8.80
2022-10-15T06:50:55.442Z,7.40
2022-10-15T06:56:01.495Z,7.07
2022-10-15T07:01:09.027Z,7.00
2022-10-15T07:06:12.844Z,4.87
2022-10-15T07:11:18.334Z,4.50
2022-10-15T07:16:22.152Z,5.60
2022-10-15T07:21:25.959Z,4.90
2022-10-15T07:26:33.800Z,5.45
2022-10-15T07:31:39.137Z,4.95
2022-10-15T07:36:42.975Z,4.53
2022-10-15T07:41:48.168Z,4.55
2022-10-15T07:46:52.016Z,4.23
2022-10-15T07:51:55.829Z,3.95
2022-10-15T07:57:03.119Z,4.80
2022-10-15T08:02:07.110Z,4.67
2022-10-15T08:07:10.951Z,5.25
2022-10-15T08:12:16.118Z,5.82
2022-10-15T08:17:22.795Z,5.50
2022-10-15T08:22:26.884Z,6.95
2022-10-15T08:27:34.296Z,6.75
2022-10-15T08:32:41.009Z,7.70
2022-10-15T08:37:44.792Z,5.63
2022-10-15T08:42:51.117Z,6.20
2022-10-15T08:47:59.083Z,4.93
2022-10-15T08:53:03.169Z,4.30
2022-10-15T08:58:14.979Z,4.43
2022-10-15T09:03:33.206Z,3.85
2022-10-15T09:08:43.125Z,4.90
2022-10-15T09:13:48.503Z,5.25
2022-10-15T09:19:01.982Z,5.50
2022-10-15T09:29:17.816Z,5.90
2022-10-15T09:34:25.698Z,5.38
2022-10-15T09:39:42.779Z,4.97
2022-10-15T09:44:48.810Z,5.10
2022-10-15T09:49:52.629Z,5.18
2022-10-15T09:55:03.603Z,4.78
2022-10-15T10:00:11.835Z,4.45
2022-10-15T10:05:22.081Z,4.70
2022-10-15T10:10:27.300Z,4.85
2022-10-15T10:15:35.593Z,4.80
2022-10-15T10:20:54.606Z,4.40
2022-10-15T10:25:59.771Z,4.68
2022-10-15T10:31:09.625Z,4.60
2022-10-15T10:36:22.870Z,7.53
2022-10-15T10:41:50.255Z,5.50
2022-10-15T10:47:10.703Z,4.82
2022-10-15T10:52:23.181Z,4.72
2022-10-15T10:57:36.596Z,4.90
2022-10-15T11:02:44.085Z,5.47
2022-10-15T11:07:52.816Z,4.95
2022-10-15T11:13:08.117Z,5.25
2022-10-15T11:18:34.757Z,5.57
2022-10-15T11:23:47.715Z,4.93
2022-10-15T11:28:59.706Z,4.78
2022-10-15T11:34:16.435Z,5.15
2022-10-15T11:39:35.247Z,5.00
2022-10-15T11:44:53.220Z,4.60
2022-10-15T11:50:12.886Z,4.60
2022-10-15T11:55:20.769Z,4.03
2022-10-15T12:00:32.901Z,4.68
2022-10-15T12:05:41.114Z,3.85
2022-10-15T12:10:56.582Z,4.05
2022-10-15T12:16:11.965Z,3.75
2022-10-15T12:21:34.258Z,3.75
2022-10-15T12:26:38.182Z,4.40
2022-10-15T12:31:49.161Z,4.30
2022-10-15T12:37:03.466Z,4.30
2022-10-15T12:42:22.013Z,4.40
2022-10-15T12:47:47.924Z,4.18
2022-10-15T12:52:59.366Z,4.25
2022-10-15T12:58:17.919Z,7.95
2022-10-15T13:03:40.031Z,4.68
2022-10-15T13:08:47.032Z,3.78
2022-10-15T13:13:52.324Z,4.25
2022-10-15T13:18:59.229Z,4.35
2022-10-15T13:24:12.275Z,5.10
2022-10-15T13:29:17.698Z,4.22
2022-10-15T13:34:27.796Z,4.68
2022-10-15T13:39:35.001Z,4.28
2022-10-15T13:44:38.914Z,3.85
2022-10-15T13:49:42.687Z,4.65
2022-10-15T13:54:48.140Z,3.70
2022-10-15T13:59:51.971Z,4.40
2022-10-15T14:04:55.819Z,4.20
2022-10-15T14:10:01.011Z,4.93
2022-10-15T14:15:37.132Z,5.07
2022-10-15T14:20:45.286Z,5.50
2022-10-15T14:25:58.294Z,5.22
2022-10-15T14:31:02.702Z,6.20
2022-10-15T14:36:08.878Z,5.30
2022-10-15T14:41:27.174Z,6.63
2022-10-15T14:46:38.172Z,6.30
2022-10-15T14:51:42.219Z,6.15
2022-10-15T14:56:47.486Z,6.10
2022-10-15T15:01:58.529Z,5.97
2022-10-15T15:07:11.975Z,6.25
2022-10-15T15:12:26.945Z,7.30
2022-10-15T15:17:32.606Z,8.93
2022-10-15T15:22:37.246Z,9.15
2022-10-15T15:27:42.568Z,8.60
2022-10-15T15:32:46.628Z,10.27
2022-10-15T15:37:50.432Z,12.13
2022-10-15T15:42:56.671Z,15.20
2022-10-15T15:48:03.599Z,14.32
2022-10-15T15:53:07.482Z,16.02
2022-10-15T15:58:12.639Z,14.40
2022-10-15T16:03:16.677Z,15.63
2022-10-15T16:08:20.482Z,13.95
2022-10-15T16:13:25.675Z,15.82
2022-10-15T16:18:29.548Z,14.63
2022-10-15T16:23:33.318Z,15.85
2022-10-15T16:28:38.509Z,20.73
2022-10-15T16:33:42.436Z,19.53
2022-10-15T16:38:47.243Z,21.85
2022-10-15T16:43:52.510Z,17.73
2022-10-15T16:48:57.882Z,15.40
2022-10-15T16:54:01.663Z,10.37
2022-10-15T16:59:06.850Z,12.98
2022-10-15T17:04:10.780Z,14.77
2022-10-15T17:09:14.634Z,14.95
2022-10-15T17:14:20.031Z,18.52
2022-10-15T17:19:29.100Z,19.27
2022-10-15T17:24:35.672Z,21.90
2022-10-15T17:29:40.937Z,21.08
2022-10-15T17:34:44.794Z,22.50
2022-10-15T17:39:48.603Z,21.90
2022-10-15T17:44:53.834Z,21.60
2022-10-15T17:49:57.960Z,21.02
2022-10-15T17:55:01.832Z,19.38
2022-10-15T18:00:08.537Z,16.98
2022-10-15T18:10:24.842Z,17.17
2022-10-15T18:15:30.917Z,16.52
2022-10-15T18:20:36.023Z,16.50
2022-10-15T18:25:40.027Z,16.40
2022-10-15T18:30:45.184Z,17.67
2022-10-15T18:35:51.614Z,19.77
2022-10-15T18:40:55.389Z,22.50
2022-10-15T18:46:04.190Z,25.63
2022-10-15T18:51:09.747Z,21.80
2022-10-15T18:56:13.979Z,23.60
2022-10-15T19:01:26.548Z,24.15
2022-10-15T19:06:32.160Z,23.05
2022-10-15T19:11:36.657Z,24.60
2022-10-15T19:16:41.881Z,24.10
2022-10-15T19:21:47.443Z,26.40
2022-10-15T19:26:52.584Z,28.33
2022-10-15T19:31:57.760Z,30.67
2022-10-15T19:37:01.551Z,24.85
2022-10-15T19:42:05.711Z,24.02
2022-10-15T19:47:10.878Z,24.88
2022-10-15T19:52:14.661Z,23.73
2022-10-15T19:57:20.719Z,23.50
2022-10-15T20:02:25.926Z,26.95
2022-10-15T20:07:29.704Z,35.25
2022-10-15T20:12:33.535Z,34.08
2022-10-15T20:17:38.738Z,35.80
2022-10-15T20:22:42.542Z,25.80
2022-10-15T20:27:46.339Z,28.85
2022-10-15T20:32:51.509Z,28.70
2022-10-15T20:37:55.303Z,37.05
2022-10-15T20:42:59.107Z,40.78
2022-10-15T20:48:05.010Z,33.05
2022-10-15T20:53:08.948Z,30.35
2022-10-15T20:58:12.821Z,37.95
2022-10-15T21:03:18.035Z,39.03
2022-10-15T21:08:22.671Z,31.35
2022-10-15T21:13:26.571Z,40.75
2022-10-15T21:18:32.655Z,38.22
2022-10-15T21:23:37.127Z,38.45
2022-10-15T21:28:41.031Z,34.97
2022-10-15T21:33:46.642Z,31.90
2022-10-15T21:38:52.988Z,35.58
2022-10-15T21:43:56.774Z,34.40
2022-10-15T21:49:03.103Z,32.33
2022-10-15T21:54:07.874Z,30.88
2022-10-15T21:59:11.818Z,29.67
2022-10-15T22:04:16.995Z,30.10
2022-10-15T22:09:20.783Z,26.50
2022-10-15T22:14:24.586Z,26.63
2022-10-15T22:19:29.995Z,27.80
2022-10-15T22:24:33.950Z,25.23
2022-10-15T22:29:37.765Z,24.60
2022-10-15T22:34:42.976Z,24.20
2022-10-15T22:39:46.796Z,24.20
2022-10-15T22:44:50.599Z,24.88
2022-10-15T22:49:55.906Z,23.63
2022-10-15T22:54:59.790Z,18.30
2022-10-15T23:00:04.527Z,23.65
2022-10-15T23:05:10.312Z,23.88
2022-10-15T23:10:14.127Z,23.95
2022-10-15T23:15:18.000Z,24.48
2022-10-15T23:20:23.163Z,26.25
2022-10-15T23:25:26.949Z,27.05
2022-10-15T23:30:30.722Z,27.50
2022-10-15T23:40:40.568Z,24.95
2022-10-15T23:45:44.455Z,24.52
2022-10-15T23:50:50.093Z,22.95
2022-10-15T23:55:53.895Z,23.35
